sensor_id;sensor_type;location;lat;lon;timestamp;pressure;altitude;pressure_sealevel;temperature;humidity
35647;BME280;28680;45.642;13.756;2022-12-18T00:09:38;102320.81;;;6.13;100.00
35647;BME280;28680;45.642;13.756;2022-12-18T00:12:04;102329.44;;;6.15;100.00
35647;BME280;28680;45.642;13.756;2022-12-18T00:14:30;102323.03;;;5.99;100.00
35647;BME280;28680;45.642;13.756;2022-12-18T00:16:56;102338.03;;;5.91;100.00
35647;BME280;28680;45.642;13.756;2022-12-18T00:19:23;102339.63;;;6.21;100.00
35647;BME280;28680;45.642;13.756;2022-12-18T00:21:49;102345.78;;;5.94;100.00
35647;BME280;28680;45.642;13.756;2022-12-18T00:24:15;102348.78;;;6.08;100.00
35647;BME280;28680;45.642;13.756;2022-12-18T00:26:41;102339.84;;;6.66;100.00
35647;BME280;28680;45.642;13.756;2022-12-18T00:29:12;102352.38;;;6.31;100.00
35647;BME280;28680;45.642;13.756;2022-12-18T00:31:40;102349.59;;;6.10;100.00
35647;BME280;28680;45.642;13.756;2022-12-18T00:34:06;102351.66;;;6.00;100.00
35647;BME280;28680;45.642;13.756;2022-12-18T00:36:34;102372.69;;;5.94;100.00
35647;BME280;28680;45.642;13.756;2022-12-18T00:39:03;102366.97;;;5.83;100.00
35647;BME280;28680;45.642;13.756;2022-12-18T00:41:29;102380.19;;;5.77;100.00
35647;BME280;28680;45.642;13.756;2022-12-18T00:44:16;102375.66;;;5.82;100.00
35647;BME280;28680;45.642;13.756;2022-12-18T00:46:43;102378.22;;;5.57;100.00
35647;BME280;28680;45.642;13.756;2022-12-18T00:49:09;102383.38;;;5.58;100.00
35647;BME280;28680;45.642;13.756;2022-12-18T00:51:35;102392.28;;;5.51;100.00
35647;BME280;28680;45.642;13.756;2022-12-18T00:54:01;102387.81;;;5.55;100.00
35647;BME280;28680;45.642;13.756;2022-12-18T00:56:27;102393.63;;;5.63;100.00
35647;BME280;28680;45.642;13.756;2022-12-18T00:58:53;102392.47;;;5.73;100.00
35647;BME280;28680;45.642;13.756;2022-12-18T01:01:19;102381.34;;;5.68;100.00
35647;BME280;28680;45.642;13.756;2022-12-18T01:03:45;102395.72;;;5.80;100.00
35647;BME280;28680;45.642;13.756;2022-12-18T01:06:13;102405.16;;;5.56;100.00
35647;BME280;28680;45.642;13.756;2022-12-18T01:08:39;102403.66;;;5.49;100.00
35647;BME280;28680;45.642;13.756;2022-12-18T01:11:14;102401.09;;;5.47;100.00
35647;BME280;28680;45.642;13.756;2022-12-18T01:13:41;102399.34;;;5.46;100.00
35647;BME280;28680;45.642;13.756;2022-12-18T01:16:08;102394.06;;;5.49;100.00
35647;BME280;28680;45.642;13.756;2022-12-18T01:18:35;102390.84;;;5.41;100.00
35647;BME280;28680;45.642;13.756;2022-12-18T01:21:06;102392.47;;;5.15;100.00
35647;BME280;28680;45.642;13.756;2022-12-18T01:23:32;102399.03;;;5.28;100.00
35647;BME280;28680;45.642;13.756;2022-12-18T01:25:57;102394.84;;;5.53;100.00
35647;BME280;28680;45.642;13.756;2022-12-18T01:28:23;102397.75;;;5.42;100.00
35647;BME280;28680;45.642;13.756;2022-12-18T01:30:49;102395.72;;;5.52;100.00
35647;BME280;28680;45.642;13.756;2022-12-18T01:33:15;102395.34;;;5.64;100.00
35647;BME280;28680;45.642;13.756;2022-12-18T01:35:44;102381.09;;;5.47;100.00
35647;BME280;28680;45.642;13.756;2022-12-18T01:38:10;102378.47;;;5.47;100.00
35647;BME280;28680;45.642;13.756;2022-12-18T01:40:36;102386.75;;;5.32;100.00
35647;BME280;28680;45.642;13.756;2022-12-18T01:43:02;102382.41;;;5.33;100.00
35647;BME280;28680;45.642;13.756;2022-12-18T01:45:30;102389.38;;;5.32;100.00
35647;BME280;28680;45.642;13.756;2022-12-18T01:48:06;102383.66;;;5.19;100.00
35647;BME280;28680;45.642;13.756;2022-12-18T01:50:40;102394.34;;;5.40;100.00
35647;BME280;28680;45.642;13.756;2022-12-18T01:53:17;102392.34;;;5.48;100.00
35647;BME280;28680;45.642;13.756;2022-12-18T01:55:50;102403.28;;;5.31;100.00
35647;BME280;28680;45.642;13.756;2022-12-18T01:58:28;102416.69;;;5.17;100.00
35647;BME280;28680;45.642;13.756;2022-12-18T02:00:55;102419.59;;;5.06;100.00
35647;BME280;28680;45.642;13.756;2022-12-18T02:03:21;102422.63;;;5.22;100.00
35647;BME280;28680;45.642;13.756;2022-12-18T02:05:55;102436.91;;;5.09;100.00
35647;BME280;28680;45.642;13.756;2022-12-18T02:11:24;102442.94;;;5.10;100.00
35647;BME280;28680;45.642;13.756;2022-12-18T02:16:52;102451.22;;;4.93;100.00
35647;BME280;28680;45.642;13.756;2022-12-18T02:23:04;102467.47;;;5.01;100.00
35647;BME280;28680;45.642;13.756;2022-12-18T02:28:45;102480.88;;;4.87;100.00
35647;BME280;28680;45.642;13.756;2022-12-18T02:31:19;102485.97;;;4.92;100.00
35647;BME280;28680;45.642;13.756;2022-12-18T02:33:47;102485.06;;;4.93;100.00
35647;BME280;28680;45.642;13.756;2022-12-18T02:36:16;102489.28;;;4.97;100.00
35647;BME280;28680;45.642;13.756;2022-12-18T02:38:44;102489.00;;;5.39;100.00
35647;BME280;28680;45.642;13.756;2022-12-18T02:41:12;102481.16;;;5.09;100.00
35647;BME280;28680;45.642;13.756;2022-12-18T02:43:38;102485.53;;;5.07;100.00
35647;BME280;28680;45.642;13.756;2022-12-18T02:46:27;102484.06;;;4.97;100.00
35647;BME280;28680;45.642;13.756;2022-12-18T03:01:33;102508.63;;;4.86;100.00
35647;BME280;28680;45.642;13.756;2022-12-18T03:04:14;102509.53;;;5.18;100.00
35647;BME280;28680;45.642;13.756;2022-12-18T03:06:48;102505.84;;;4.94;100.00
35647;BME280;28680;45.642;13.756;2022-12-18T03:09:26;102515.16;;;4.68;100.00
35647;BME280;28680;45.642;13.756;2022-12-18T03:12:02;102519.56;;;4.65;100.00
35647;BME280;28680;45.642;13.756;2022-12-18T03:15:13;102531.75;;;4.63;100.00
35647;BME280;28680;45.642;13.756;2022-12-18T03:17:46;102521.34;;;4.63;100.00
35647;BME280;28680;45.642;13.756;2022-12-18T03:20:18;102522.34;;;4.59;100.00
35647;BME280;28680;45.642;13.756;2022-12-18T03:22:52;102528.91;;;4.74;100.00
35647;BME280;28680;45.642;13.756;2022-12-18T03:25:20;102532.13;;;4.47;100.00
35647;BME280;28680;45.642;13.756;2022-12-18T03:27:51;102529.69;;;4.41;100.00
35647;BME280;28680;45.642;13.756;2022-12-18T03:30:20;102538.50;;;4.36;100.00
35647;BME280;28680;45.642;13.756;2022-12-18T03:33:10;102542.94;;;4.30;100.00
35647;BME280;28680;45.642;13.756;2022-12-18T03:35:42;102546.22;;;4.39;100.00
35647;BME280;28680;45.642;13.756;2022-12-18T03:38:09;102534.94;;;4.38;100.00
35647;BME280;28680;45.642;13.756;2022-12-18T03:43:41;102545.31;;;4.40;100.00
35647;BME280;28680;45.642;13.756;2022-12-18T03:46:25;102542.25;;;4.22;100.00
35647;BME280;28680;45.642;13.756;2022-12-18T03:49:01;102552.53;;;4.27;100.00
35647;BME280;28680;45.642;13.756;2022-12-18T03:54:05;102563.75;;;4.29;100.00
35647;BME280;28680;45.642;13.756;2022-12-18T03:56:38;102558.63;;;4.27;100.00
35647;BME280;28680;45.642;13.756;2022-12-18T03:59:06;102561.13;;;4.30;100.00
35647;BME280;28680;45.642;13.756;2022-12-18T04:01:40;102563.03;;;4.24;100.00
35647;BME280;28680;45.642;13.756;2022-12-18T04:04:08;102565.28;;;4.39;100.00
35647;BME280;28680;45.642;13.756;2022-12-18T04:06:36;102576.66;;;4.35;100.00
35647;BME280;28680;45.642;13.756;2022-12-18T04:09:04;102582.66;;;4.37;100.00
35647;BME280;28680;45.642;13.756;2022-12-18T04:11:30;102575.16;;;4.23;100.00
35647;BME280;28680;45.642;13.756;2022-12-18T04:13:57;102582.03;;;4.26;100.00
35647;BME280;28680;45.642;13.756;2022-12-18T04:16:25;102588.81;;;4.33;100.00
35647;BME280;28680;45.642;13.756;2022-12-18T04:18:52;102592.63;;;4.18;100.00
35647;BME280;28680;45.642;13.756;2022-12-18T04:21:19;102589.91;;;4.23;100.00
35647;BME280;28680;45.642;13.756;2022-12-18T04:23:45;102589.91;;;4.23;100.00
35647;BME280;28680;45.642;13.756;2022-12-18T04:26:11;102595.13;;;4.21;100.00
35647;BME280;28680;45.642;13.756;2022-12-18T04:28:37;102589.13;;;4.18;100.00
35647;BME280;28680;45.642;13.756;2022-12-18T04:31:03;102587.44;;;4.17;100.00
35647;BME280;28680;45.642;13.756;2022-12-18T04:33:29;102601.22;;;4.20;100.00
35647;BME280;28680;45.642;13.756;2022-12-18T04:35:55;102596.00;;;4.22;100.00
35647;BME280;28680;45.642;13.756;2022-12-18T04:38:21;102600.09;;;4.32;100.00
35647;BME280;28680;45.642;13.756;2022-12-18T04:40:46;102604.38;;;4.35;100.00
35647;BME280;28680;45.642;13.756;2022-12-18T04:43:12;102610.72;;;4.21;100.00
35647;BME280;28680;45.642;13.756;2022-12-18T04:45:38;102601.44;;;4.09;100.00
35647;BME280;28680;45.642;13.756;2022-12-18T04:48:04;102585.84;;;4.09;100.00
35647;BME280;28680;45.642;13.756;2022-12-18T04:50:31;102598.16;;;4.42;100.00
35647;BME280;28680;45.642;13.756;2022-12-18T04:52:57;102593.44;;;4.20;100.00
35647;BME280;28680;45.642;13.756;2022-12-18T04:55:23;102598.66;;;4.19;100.00
35647;BME280;28680;45.642;13.756;2022-12-18T04:57:49;102604.59;;;4.25;100.00
35647;BME280;28680;45.642;13.756;2022-12-18T05:00:16;102610.00;;;4.15;100.00
35647;BME280;28680;45.642;13.756;2022-12-18T05:02:42;102622.22;;;4.11;100.00
35647;BME280;28680;45.642;13.756;2022-12-18T05:05:09;102632.66;;;4.08;100.00
35647;BME280;28680;45.642;13.756;2022-12-18T05:07:35;102627.44;;;4.09;100.00
35647;BME280;28680;45.642;13.756;2022-12-18T05:10:01;102637.00;;;4.07;100.00
35647;BME280;28680;45.642;13.756;2022-12-18T05:12:27;102640.56;;;4.03;100.00
35647;BME280;28680;45.642;13.756;2022-12-18T05:14:53;102637.91;;;4.06;100.00
35647;BME280;28680;45.642;13.756;2022-12-18T05:17:19;102642.19;;;4.09;100.00
35647;BME280;28680;45.642;13.756;2022-12-18T05:19:44;102650.13;;;4.03;100.00
35647;BME280;28680;45.642;13.756;2022-12-18T05:22:10;102661.34;;;4.03;100.00
35647;BME280;28680;45.642;13.756;2022-12-18T05:24:37;102650.16;;;4.00;100.00
35647;BME280;28680;45.642;13.756;2022-12-18T05:27:03;102646.75;;;3.98;100.00
35647;BME280;28680;45.642;13.756;2022-12-18T05:29:29;102646.69;;;4.01;100.00
35647;BME280;28680;45.642;13.756;2022-12-18T05:31:54;102662.34;;;3.98;100.00
35647;BME280;28680;45.642;13.756;2022-12-18T05:34:21;102666.78;;;3.91;100.00
35647;BME280;28680;45.642;13.756;2022-12-18T05:36:47;102665.78;;;3.98;100.00
35647;BME280;28680;45.642;13.756;2022-12-18T05:39:13;102670.09;;;3.99;100.00
35647;BME280;28680;45.642;13.756;2022-12-18T05:41:39;102661.56;;;3.93;100.00
35647;BME280;28680;45.642;13.756;2022-12-18T05:44:05;102681.38;;;3.98;100.00
35647;BME280;28680;45.642;13.756;2022-12-18T05:46:31;102686.56;;;3.98;100.00
35647;BME280;28680;45.642;13.756;2022-12-18T05:49:00;102703.00;;;3.99;100.00
35647;BME280;28680;45.642;13.756;2022-12-18T05:51:26;102685.88;;;3.90;100.00
35647;BME280;28680;45.642;13.756;2022-12-18T05:53:52;102685.88;;;3.88;100.00
35647;BME280;28680;45.642;13.756;2022-12-18T05:56:21;102703.88;;;3.99;100.00
35647;BME280;28680;45.642;13.756;2022-12-18T05:58:47;102714.25;;;4.01;100.00
35647;BME280;28680;45.642;13.756;2022-12-18T06:01:20;102704.84;;;3.95;100.00
35647;BME280;28680;45.642;13.756;2022-12-18T06:03:47;102704.84;;;3.95;100.00
35647;BME280;28680;45.642;13.756;2022-12-18T06:06:25;102709.16;;;3.95;100.00
35647;BME280;28680;45.642;13.756;2022-12-18T06:08:52;102703.94;;;3.96;100.00
35647;BME280;28680;45.642;13.756;2022-12-18T06:11:26;102709.09;;;3.98;100.00
35647;BME280;28680;45.642;13.756;2022-12-18T06:13:54;102718.75;;;3.91;100.00
35647;BME280;28680;45.642;13.756;2022-12-18T06:16:20;102709.41;;;3.82;100.00
35647;BME280;28680;45.642;13.756;2022-12-18T06:18:46;102707.63;;;3.84;100.00
35647;BME280;28680;45.642;13.756;2022-12-18T06:21:12;102715.28;;;3.90;100.00
35647;BME280;28680;45.642;13.756;2022-12-18T06:23:38;102729.06;;;3.96;100.00
35647;BME280;28680;45.642;13.756;2022-12-18T06:26:09;102735.28;;;3.85;100.00
35647;BME280;28680;45.642;13.756;2022-12-18T06:28:35;102716.06;;;3.96;100.00
35647;BME280;28680;45.642;13.756;2022-12-18T06:31:03;102727.28;;;3.99;100.00
35647;BME280;28680;45.642;13.756;2022-12-18T06:33:30;102730.09;;;3.87;100.00
35647;BME280;28680;45.642;13.756;2022-12-18T06:36:10;102731.72;;;3.91;100.00
35647;BME280;28680;45.642;13.756;2022-12-18T06:38:40;102736.06;;;3.92;100.00
35647;BME280;28680;45.642;13.756;2022-12-18T06:41:16;102741.31;;;3.87;100.00
35647;BME280;28680;45.642;13.756;2022-12-18T06:43:42;102752.69;;;3.82;100.00
35647;BME280;28680;45.642;13.756;2022-12-18T06:46:09;102758.72;;;3.84;100.00
35647;BME280;28680;45.642;13.756;2022-12-18T06:48:36;102754.13;;;3.98;100.00
35647;BME280;28680;45.642;13.756;2022-12-18T06:51:02;102754.38;;;3.86;100.00
35647;BME280;28680;45.642;13.756;2022-12-18T06:53:29;102760.41;;;3.86;100.00
35647;BME280;28680;45.642;13.756;2022-12-18T06:56:05;102750.88;;;3.87;100.00
35647;BME280;28680;45.642;13.756;2022-12-18T06:58:31;102744.00;;;3.83;100.00
35647;BME280;28680;45.642;13.756;2022-12-18T07:01:05;102756.25;;;3.76;100.00
35647;BME280;28680;45.642;13.756;2022-12-18T07:03:32;102758.78;;;3.81;100.00
35647;BME280;28680;45.642;13.756;2022-12-18T07:05:58;102763.94;;;3.82;100.00
35647;BME280;28680;45.642;13.756;2022-12-18T07:08:24;102768.09;;;3.93;100.00
35647;BME280;28680;45.642;13.756;2022-12-18T07:10:49;102768.09;;;3.91;100.00
35647;BME280;28680;45.642;13.756;2022-12-18T07:13:16;102775.00;;;3.95;100.00
35647;BME280;28680;45.642;13.756;2022-12-18T07:15:43;102778.44;;;3.94;100.00
35647;BME280;28680;45.642;13.756;2022-12-18T07:18:09;102787.22;;;3.88;100.00
35647;BME280;28680;45.642;13.756;2022-12-18T07:20:36;102790.69;;;3.87;100.00
35647;BME280;28680;45.642;13.756;2022-12-18T07:23:04;102788.09;;;3.87;100.00
35647;BME280;28680;45.642;13.756;2022-12-18T07:25:36;102783.66;;;3.94;100.00
35647;BME280;28680;45.642;13.756;2022-12-18T07:28:03;102795.63;;;4.03;100.00
35647;BME280;28680;45.642;13.756;2022-12-18T07:30:29;102802.53;;;4.02;100.00
35647;BME280;28680;45.642;13.756;2022-12-18T07:32:55;102800.69;;;4.10;100.00
35647;BME280;28680;45.642;13.756;2022-12-18T07:35:21;102809.44;;;4.06;100.00
35647;BME280;28680;45.642;13.756;2022-12-18T07:37:47;102810.31;;;4.04;100.00
35647;BME280;28680;45.642;13.756;2022-12-18T07:40:13;102818.88;;;4.10;100.00
35647;BME280;28680;45.642;13.756;2022-12-18T07:42:39;102811.09;;;4.10;100.00
35647;BME280;28680;45.642;13.756;2022-12-18T07:45:05;102814.44;;;4.16;100.00
35647;BME280;28680;45.642;13.756;2022-12-18T07:47:35;102824.66;;;4.26;100.00
35647;BME280;28680;45.642;13.756;2022-12-18T07:50:03;102830.13;;;5.00;100.00
35647;BME280;28680;45.642;13.756;2022-12-18T07:52:29;102829.38;;;5.71;100.00
35647;BME280;28680;45.642;13.756;2022-12-18T07:54:55;102840.88;;;5.98;100.00
35647;BME280;28680;45.642;13.756;2022-12-18T07:57:21;102838.44;;;5.91;100.00
35647;BME280;28680;45.642;13.756;2022-12-18T07:59:47;102831.72;;;6.49;100.00
35647;BME280;28680;45.642;13.756;2022-12-18T08:02:13;102836.66;;;7.19;100.00
35647;BME280;28680;45.642;13.756;2022-12-18T08:04:38;102838.72;;;7.65;100.00
35647;BME280;28680;45.642;13.756;2022-12-18T08:07:04;102842.28;;;7.89;100.00
35647;BME280;28680;45.642;13.756;2022-12-18T08:09:30;102844.09;;;7.87;100.00
35647;BME280;28680;45.642;13.756;2022-12-18T08:11:56;102856.13;;;8.17;100.00
35647;BME280;28680;45.642;13.756;2022-12-18T08:14:22;102850.22;;;8.37;100.00
35647;BME280;28680;45.642;13.756;2022-12-18T08:16:48;102848.38;;;8.14;100.00
35647;BME280;28680;45.642;13.756;2022-12-18T08:19:14;102853.97;;;8.55;100.00
35647;BME280;28680;45.642;13.756;2022-12-18T08:21:39;102853.91;;;8.32;100.00
35647;BME280;28680;45.642;13.756;2022-12-18T08:24:06;102852.38;;;8.75;100.00
35647;BME280;28680;45.642;13.756;2022-12-18T08:26:32;102855.78;;;8.77;100.00
35647;BME280;28680;45.642;13.756;2022-12-18T08:29:00;102851.00;;;8.88;100.00
35647;BME280;28680;45.642;13.756;2022-12-18T08:31:27;102854.56;;;8.87;100.00
35647;BME280;28680;45.642;13.756;2022-12-18T08:33:54;102850.91;;;9.15;100.00
35647;BME280;28680;45.642;13.756;2022-12-18T08:36:21;102844.69;;;9.40;100.00
35647;BME280;28680;45.642;13.756;2022-12-18T08:38:47;102848.22;;;9.61;100.00
35647;BME280;28680;45.642;13.756;2022-12-18T08:41:15;102857.66;;;9.65;100.00
35647;BME280;28680;45.642;13.756;2022-12-18T08:43:42;102852.78;;;10.19;100.00
35647;BME280;28680;45.642;13.756;2022-12-18T08:46:32;102863.63;;;10.52;100.00
35647;BME280;28680;45.642;13.756;2022-12-18T08:48:58;102874.81;;;10.76;100.00
35647;BME280;28680;45.642;13.756;2022-12-18T08:51:24;102871.19;;;10.79;100.00
35647;BME280;28680;45.642;13.756;2022-12-18T08:53:50;102871.13;;;10.80;100.00
35647;BME280;28680;45.642;13.756;2022-12-18T08:56:16;102876.88;;;11.26;100.00
35647;BME280;28680;45.642;13.756;2022-12-18T08:58:42;102883.19;;;11.22;100.00
35647;BME280;28680;45.642;13.756;2022-12-18T09:01:11;102879.97;;;11.54;100.00
35647;BME280;28680;45.642;13.756;2022-12-18T09:03:38;102876.34;;;11.56;100.00
35647;BME280;28680;45.642;13.756;2022-12-18T09:06:05;102891.22;;;11.75;100.00
35647;BME280;28680;45.642;13.756;2022-12-18T09:08:36;102902.81;;;11.53;100.00
35647;BME280;28680;45.642;13.756;2022-12-18T09:11:02;102894.97;;;11.88;100.00
35647;BME280;28680;45.642;13.756;2022-12-18T09:13:28;102892.59;;;12.18;100.00
35647;BME280;28680;45.642;13.756;2022-12-18T09:15:58;102889.19;;;12.16;100.00
35647;BME280;28680;45.642;13.756;2022-12-18T09:18:24;102891.28;;;12.27;100.00
35647;BME280;28680;45.642;13.756;2022-12-18T09:20:52;102887.13;;;12.56;100.00
35647;BME280;28680;45.642;13.756;2022-12-18T09:23:19;102905.94;;;12.66;100.00
35647;BME280;28680;45.642;13.756;2022-12-18T09:25:45;102907.72;;;12.99;100.00
35647;BME280;28680;45.642;13.756;2022-12-18T09:28:18;102914.34;;;13.06;100.00
35647;BME280;28680;45.642;13.756;2022-12-18T09:30:49;102911.31;;;13.14;100.00
35647;BME280;28680;45.642;13.756;2022-12-18T09:33:16;102909.78;;;13.25;100.00
35647;BME280;28680;45.642;13.756;2022-12-18T09:35:44;102908.16;;;13.55;100.00
35647;BME280;28680;45.642;13.756;2022-12-18T09:38:17;102915.88;;;13.90;95.35
35647;BME280;28680;45.642;13.756;2022-12-18T09:40:52;102920.34;;;13.41;92.98
35647;BME280;28680;45.642;13.756;2022-12-18T09:43:49;102924.06;;;14.15;87.73
35647;BME280;28680;45.642;13.756;2022-12-18T09:46:27;102914.91;;;14.21;92.17
35647;BME280;28680;45.642;13.756;2022-12-18T09:49:02;102928.56;;;14.13;87.95
35647;BME280;28680;45.642;13.756;2022-12-18T09:54:43;102916.59;;;14.52;85.48
35647;BME280;28680;45.642;13.756;2022-12-18T09:57:15;102922.88;;;14.35;93.57
35647;BME280;28680;45.642;13.756;2022-12-18T09:59:47;102918.94;;;14.42;89.34
35647;BME280;28680;45.642;13.756;2022-12-18T10:02:22;102917.50;;;14.37;84.74
35647;BME280;28680;45.642;13.756;2022-12-18T10:05:07;102908.78;;;14.20;92.64
35647;BME280;28680;45.642;13.756;2022-12-18T10:13:50;102908.81;;;13.90;100.00
35647;BME280;28680;45.642;13.756;2022-12-18T10:16:29;102907.66;;;14.24;100.00
35647;BME280;28680;45.642;13.756;2022-12-18T10:24:56;102895.25;;;14.55;100.00
35647;BME280;28680;45.642;13.756;2022-12-18T10:27:26;102901.13;;;14.46;100.00
35647;BME280;28680;45.642;13.756;2022-12-18T10:29:53;102895.22;;;14.27;100.00
35647;BME280;28680;45.642;13.756;2022-12-18T10:32:33;102902.31;;;14.55;100.00
35647;BME280;28680;45.642;13.756;2022-12-18T10:34:58;102902.94;;;14.60;100.00
35647;BME280;28680;45.642;13.756;2022-12-18T10:37:28;102909.91;;;14.75;100.00
35647;BME280;28680;45.642;13.756;2022-12-18T10:40:30;102901.03;;;14.91;91.99
35647;BME280;28680;45.642;13.756;2022-12-18T10:43:14;102891.81;;;14.69;83.85
35647;BME280;28680;45.642;13.756;2022-12-18T10:45:41;102899.59;;;13.97;93.43
35647;BME280;28680;45.642;13.756;2022-12-18T10:48:24;102891.38;;;14.02;100.00
35647;BME280;28680;45.642;13.756;2022-12-18T10:50:51;102891.28;;;14.34;94.10
35647;BME280;28680;45.642;13.756;2022-12-18T10:53:24;102889.53;;;14.77;100.00
35647;BME280;28680;45.642;13.756;2022-12-18T10:55:54;102878.16;;;15.04;99.72
35647;BME280;28680;45.642;13.756;2022-12-18T10:58:26;102879.16;;;15.30;86.32
35647;BME280;28680;45.642;13.756;2022-12-18T11:01:17;102867.00;;;15.40;86.29
35647;BME280;28680;45.642;13.756;2022-12-18T11:03:45;102876.34;;;15.46;83.52
35647;BME280;28680;45.642;13.756;2022-12-18T11:06:21;102877.88;;;15.09;80.17
35647;BME280;28680;45.642;13.756;2022-12-18T11:09:05;102859.22;;;14.54;83.45
35647;BME280;28680;45.642;13.756;2022-12-18T11:11:33;102868.38;;;14.92;89.03
35647;BME280;28680;45.642;13.756;2022-12-18T11:14:25;102858.66;;;15.19;84.12
35647;BME280;28680;45.642;13.756;2022-12-18T11:16:52;102861.63;;;15.42;83.35
35647;BME280;28680;45.642;13.756;2022-12-18T11:19:30;102863.25;;;15.45;84.13
35647;BME280;28680;45.642;13.756;2022-12-18T11:21:58;102857.28;;;15.41;85.31
35647;BME280;28680;45.642;13.756;2022-12-18T11:26:58;102854.22;;;15.74;81.63
35647;BME280;28680;45.642;13.756;2022-12-18T11:29:44;102855.25;;;15.72;81.21
35647;BME280;28680;45.642;13.756;2022-12-18T11:32:43;102853.41;;;15.87;76.40
35647;BME280;28680;45.642;13.756;2022-12-18T11:35:14;102852.81;;;16.09;78.27
35647;BME280;28680;45.642;13.756;2022-12-18T11:37:46;102843.59;;;16.40;76.38
35647;BME280;28680;45.642;13.756;2022-12-18T11:40:35;102844.41;;;16.66;67.88
35647;BME280;28680;45.642;13.756;2022-12-18T11:43:32;102848.22;;;16.75;73.99
35647;BME280;28680;45.642;13.756;2022-12-18T11:46:51;102835.16;;;16.98;67.78
35647;BME280;28680;45.642;13.756;2022-12-18T11:50:26;102848.03;;;17.15;66.09
35647;BME280;28680;45.642;13.756;2022-12-18T11:53:00;102849.44;;;17.32;65.74
35647;BME280;28680;45.642;13.756;2022-12-18T11:59:09;102850.91;;;18.07;54.97
35647;BME280;28680;45.642;13.756;2022-12-18T12:02:03;102854.06;;;18.12;57.56
35647;BME280;28680;45.642;13.756;2022-12-18T12:25:53;102842.63;;;19.02;51.45
35647;BME280;28680;45.642;13.756;2022-12-18T12:29:25;102837.81;;;19.17;48.08
35647;BME280;28680;45.642;13.756;2022-12-18T12:40:01;102832.25;;;19.20;49.90
35647;BME280;28680;45.642;13.756;2022-12-18T12:42:47;102832.31;;;19.62;46.33
35647;BME280;28680;45.642;13.756;2022-12-18T12:46:11;102840.41;;;19.39;48.51
35647;BME280;28680;45.642;13.756;2022-12-18T12:48:50;102845.38;;;19.44;51.71
35647;BME280;28680;45.642;13.756;2022-12-18T12:51:25;102842.97;;;19.62;46.56
35647;BME280;28680;45.642;13.756;2022-12-18T12:53:55;102854.03;;;19.57;53.57
35647;BME280;28680;45.642;13.756;2022-12-18T12:56:26;102846.13;;;19.88;46.00
35647;BME280;28680;45.642;13.756;2022-12-18T12:59:34;102848.59;;;20.01;45.57
35647;BME280;28680;45.642;13.756;2022-12-18T13:02:28;102855.94;;;20.09;45.27
35647;BME280;28680;45.642;13.756;2022-12-18T13:05:26;102839.81;;;20.10;56.03
35647;BME280;28680;45.642;13.756;2022-12-18T13:08:09;102846.31;;;20.17;47.10
35647;BME280;28680;45.642;13.756;2022-12-18T13:10:41;102857.97;;;20.16;45.80
35647;BME280;28680;45.642;13.756;2022-12-18T13:13:10;102850.28;;;20.23;44.67
35647;BME280;28680;45.642;13.756;2022-12-18T13:15:45;102857.28;;;20.24;44.39
35647;BME280;28680;45.642;13.756;2022-12-18T13:21:33;102854.03;;;20.20;43.53
35647;BME280;28680;45.642;13.756;2022-12-18T13:24:34;102853.03;;;20.12;43.75
35647;BME280;28680;45.642;13.756;2022-12-18T13:27:00;102857.44;;;20.01;48.05
35647;BME280;28680;45.642;13.756;2022-12-18T13:29:46;102851.75;;;20.06;48.03
35647;BME280;28680;45.642;13.756;2022-12-18T13:32:25;102857.44;;;20.01;46.73
35647;BME280;28680;45.642;13.756;2022-12-18T13:37:52;102863.06;;;19.98;45.28
35647;BME280;28680;45.642;13.756;2022-12-18T13:46:05;102866.16;;;19.06;46.10
35647;BME280;28680;45.642;13.756;2022-12-18T13:48:36;102869.72;;;18.39;47.08
35647;BME280;28680;45.642;13.756;2022-12-18T13:51:07;102874.66;;;17.86;53.28
35647;BME280;28680;45.642;13.756;2022-12-18T13:53:42;102884.47;;;17.00;51.63
35647;BME280;28680;45.642;13.756;2022-12-18T13:56:14;102878.44;;;15.68;58.81
35647;BME280;28680;45.642;13.756;2022-12-18T13:58:40;102885.53;;;15.68;59.92
35647;BME280;28680;45.642;13.756;2022-12-18T14:01:22;102887.22;;;15.14;61.79
35647;BME280;28680;45.642;13.756;2022-12-18T14:03:50;102875.06;;;15.39;63.07
35647;BME280;28680;45.642;13.756;2022-12-18T14:06:16;102869.38;;;15.04;67.03
35647;BME280;28680;45.642;13.756;2022-12-18T14:08:43;102879.47;;;15.26;66.80
35647;BME280;28680;45.642;13.756;2022-12-18T14:11:22;102867.94;;;14.71;68.64
35647;BME280;28680;45.642;13.756;2022-12-18T14:13:49;102860.13;;;14.53;68.68
35647;BME280;28680;45.642;13.756;2022-12-18T14:16:17;102870.44;;;15.01;66.57
35647;BME280;28680;45.642;13.756;2022-12-18T14:18:50;102870.22;;;15.18;64.78
35647;BME280;28680;45.642;13.756;2022-12-18T14:21:29;102876.25;;;15.06;66.54
35647;BME280;28680;45.642;13.756;2022-12-18T14:24:27;102864.81;;;14.64;68.56
35647;BME280;28680;45.642;13.756;2022-12-18T14:26:53;102862.47;;;14.59;69.28
35647;BME280;28680;45.642;13.756;2022-12-18T14:29:26;102856.31;;;14.00;71.97
35647;BME280;28680;45.642;13.756;2022-12-18T14:32:13;102859.66;;;12.94;81.58
35647;BME280;28680;45.642;13.756;2022-12-18T14:34:52;102867.84;;;13.53;80.94
35647;BME280;28680;45.642;13.756;2022-12-18T14:37:26;102869.44;;;13.07;84.56
35647;BME280;28680;45.642;13.756;2022-12-18T14:39:58;102871.56;;;13.64;100.00
35647;BME280;28680;45.642;13.756;2022-12-18T14:42:26;102863.25;;;13.87;100.00